Latitude: N 50° 09' 49" Longitude: W 05° 11' 53" Elevation: 168m ASL

There are 30 visitors online

Adverts
Latest METAR Data

Below are the latest METARs ("Meteorological Services to Airmen Reports"), for RNAS Culdrose and Newquay Airport.

EGDR - RNAS Culdrose
Distance from station: SW 6mi, 9km
Updated: Fri, 23-Feb-2018 5:50pm GMT
Mostly Cloudy
Mostly Cloudy
 Wind from E
Wind: E 26 mph , 43 km/h
Temperature: 39°F , 4°C
Wind Chill: 28°F , -2°C
Dew Point: 28°F , -2°C
Humidity: 65%
Barometer: 29.94 inHg , 1014 hPa
Clouds: Mostly Cloudy
Visibility: 6 miles , 10 km
Cloud details: Mostly Cloudy 2600 ft
2018/02/23 17:50 EGDR 231750Z AUTO 10023KT 9999 // BKN026/// 04/M02 Q1014
EGHQ - Newquay Airport
Distance from station: NE 21mi, 34km
Updated: Fri, 23-Feb-2018 6:20pm GMT
Partly Cloudy
Partly Cloudy
 Wind from ESE
Wind: ESE 18 mph , 30 km/h, Gust: 30 mph , 48 km/h
Temperature: 37°F , 3°C
Wind Chill: 27°F , -3°C
Dew Point: 28°F , -2°C
Humidity: 70%
Barometer: 29.97 inHg , 1015 hPa
Clouds: Partly Cloudy
Visibility: 6 miles , 10 km
Cloud details: Partly Cloudy 2500 ft
2018/02/23 18:20 EGHQ 231820Z 11016G26KT 9999 SCT025 03/M02 Q1015
 
EGTE - Exeter Airport
Distance from station: ENE 88mi, 141km
Updated: Fri, 23-Feb-2018 6:20pm GMT
Clear
Clear
 Wind from E
Wind: E 6 mph , 9 km/h
Temperature: 34°F , 1°C
Wind Chill: 29°F , -2°C
Dew Point: 25°F , -4°C
Humidity: 70%
Barometer: 30.03 inHg , 1017 hPa
Summary: Clear
Visibility: greater than 7 miles , 10 km
2018/02/23 18:20 EGTE 231820Z 08005KT CAVOK 01/M04 Q1017
EGHE - St Marys, IOS
Distance from station: W 51mi, 82km
Updated: Fri, 23-Feb-2018 5:20pm GMT
Partly Cloudy
Partly Cloudy
 Wind from ESE
Wind: ESE 25 mph , 41 km/h
Temperature: 43°F , 6°C
Wind Chill: 33°F , 1°C
Dew Point: 32°F , 0°C
Humidity: 66%
Barometer: 29.91 inHg , 1013 hPa
Clouds: Partly Cloudy
Visibility: 6 miles , 10 km
Cloud details: Few Clouds 1200 ft
Partly Cloudy 1900 ft
2018/02/23 17:20 EGHE 231720Z 12022KT 9999 FEW012 SCT019 06/00 Q1013

Metar display script from Saratoga-Weather.org

UK - WEATHER STATION TOPSITES - UK World Weather Websites

This is a private weather station, never base important decisions or events on data from this weather station. Although every effort has been made to make the data as accurate as possible it does not meet MetOffice standards. It is proved as a guide of local weather conditions. We accept no liability for any loss which may arise from use of the data.

Copyright © Carnkie Weather 2009 - 2018.